sensor_id;sensor_type;location;lat;lon;timestamp;P1;durP1;ratioP1;P2;durP2;ratioP2
38937;SDS011;24727;51.974;20.868;2023-05-19T00:00:56;4.18;;;2.05;;
38937;SDS011;24727;51.974;20.868;2023-05-19T00:03:24;2.45;;;1.70;;
38937;SDS011;24727;51.974;20.868;2023-05-19T00:05:52;3.83;;;1.80;;
38937;SDS011;24727;51.974;20.868;2023-05-19T00:08:19;5.45;;;2.10;;
38937;SDS011;24727;51.974;20.868;2023-05-19T00:10:48;2.17;;;1.42;;
38937;SDS011;24727;51.974;20.868;2023-05-19T00:13:15;2.20;;;1.63;;
38937;SDS011;24727;51.974;20.868;2023-05-19T00:15:42;2.78;;;2.05;;
38937;SDS011;24727;51.974;20.868;2023-05-19T00:18:09;2.67;;;1.23;;
38937;SDS011;24727;51.974;20.868;2023-05-19T00:20:39;2.05;;;1.27;;
38937;SDS011;24727;51.974;20.868;2023-05-19T00:23:05;2.03;;;1.55;;
38937;SDS011;24727;51.974;20.868;2023-05-19T00:25:31;5.97;;;1.90;;
38937;SDS011;24727;51.974;20.868;2023-05-19T00:27:58;2.28;;;1.63;;
38937;SDS011;24727;51.974;20.868;2023-05-19T00:30:24;3.97;;;1.90;;
38937;SDS011;24727;51.974;20.868;2023-05-19T00:32:52;2.15;;;1.55;;
38937;SDS011;24727;51.974;20.868;2023-05-19T00:35:19;2.83;;;1.90;;
38937;SDS011;24727;51.974;20.868;2023-05-19T00:37:45;4.25;;;1.90;;
38937;SDS011;24727;51.974;20.868;2023-05-19T00:40:14;2.47;;;1.77;;
38937;SDS011;24727;51.974;20.868;2023-05-19T00:42:41;4.07;;;1.95;;
38937;SDS011;24727;51.974;20.868;2023-05-19T00:45:07;3.70;;;2.22;;
38937;SDS011;24727;51.974;20.868;2023-05-19T00:47:35;3.45;;;1.98;;
38937;SDS011;24727;51.974;20.868;2023-05-19T00:50:01;3.95;;;1.98;;
38937;SDS011;24727;51.974;20.868;2023-05-19T00:52:27;4.57;;;1.73;;
38937;SDS011;24727;51.974;20.868;2023-05-19T00:54:54;3.67;;;1.85;;
38937;SDS011;24727;51.974;20.868;2023-05-19T00:57:20;2.58;;;1.77;;
38937;SDS011;24727;51.974;20.868;2023-05-19T00:59:47;4.90;;;1.77;;
38937;SDS011;24727;51.974;20.868;2023-05-19T01:02:13;2.30;;;1.77;;
38937;SDS011;24727;51.974;20.868;2023-05-19T01:04:39;7.68;;;3.33;;
38937;SDS011;24727;51.974;20.868;2023-05-19T01:07:08;4.40;;;1.98;;
38937;SDS011;24727;51.974;20.868;2023-05-19T01:09:34;5.05;;;2.30;;
38937;SDS011;24727;51.974;20.868;2023-05-19T01:12:01;2.17;;;1.70;;
38937;SDS011;24727;51.974;20.868;2023-05-19T01:14:27;3.42;;;2.10;;
38937;SDS011;24727;51.974;20.868;2023-05-19T01:17:00;4.70;;;2.03;;
38937;SDS011;24727;51.974;20.868;2023-05-19T01:20:05;3.75;;;2.17;;
38937;SDS011;24727;51.974;20.868;2023-05-19T01:22:45;5.15;;;1.92;;
38937;SDS011;24727;51.974;20.868;2023-05-19T01:28:40;2.15;;;1.80;;
38937;SDS011;24727;51.974;20.868;2023-05-19T01:31:22;4.55;;;2.03;;
38937;SDS011;24727;51.974;20.868;2023-05-19T01:33:51;4.65;;;2.22;;
38937;SDS011;24727;51.974;20.868;2023-05-19T01:36:19;3.00;;;1.95;;
38937;SDS011;24727;51.974;20.868;2023-05-19T01:38:48;2.47;;;1.60;;
38937;SDS011;24727;51.974;20.868;2023-05-19T01:41:17;6.25;;;2.10;;
38937;SDS011;24727;51.974;20.868;2023-05-19T01:43:46;5.22;;;2.05;;
38937;SDS011;24727;51.974;20.868;2023-05-19T01:46:15;2.88;;;1.92;;
38937;SDS011;24727;51.974;20.868;2023-05-19T01:48:44;5.25;;;2.15;;
38937;SDS011;24727;51.974;20.868;2023-05-19T01:51:11;4.25;;;2.50;;
38937;SDS011;24727;51.974;20.868;2023-05-19T01:53:36;4.32;;;2.17;;
38937;SDS011;24727;51.974;20.868;2023-05-19T01:56:03;4.35;;;2.40;;
38937;SDS011;24727;51.974;20.868;2023-05-19T02:01:48;3.67;;;2.00;;
38937;SDS011;24727;51.974;20.868;2023-05-19T02:09:14;2.35;;;1.60;;
38937;SDS011;24727;51.974;20.868;2023-05-19T02:11:54;5.45;;;2.00;;
38937;SDS011;24727;51.974;20.868;2023-05-19T02:17:26;2.28;;;1.40;;
38937;SDS011;24727;51.974;20.868;2023-05-19T02:19:53;5.57;;;1.40;;
38937;SDS011;24727;51.974;20.868;2023-05-19T02:22:26;2.63;;;1.48;;
38937;SDS011;24727;51.974;20.868;2023-05-19T02:24:52;1.73;;;1.23;;
38937;SDS011;24727;51.974;20.868;2023-05-19T02:27:20;1.52;;;1.20;;
38937;SDS011;24727;51.974;20.868;2023-05-19T02:29:46;2.92;;;1.20;;
38937;SDS011;24727;51.974;20.868;2023-05-19T02:32:13;1.55;;;1.25;;
38937;SDS011;24727;51.974;20.868;2023-05-19T02:34:39;1.00;;;0.90;;
38937;SDS011;24727;51.974;20.868;2023-05-19T02:37:06;2.63;;;1.27;;
38937;SDS011;24727;51.974;20.868;2023-05-19T02:39:32;2.97;;;1.42;;
38937;SDS011;24727;51.974;20.868;2023-05-19T02:42:00;2.33;;;1.52;;
38937;SDS011;24727;51.974;20.868;2023-05-19T02:44:27;1.98;;;1.15;;
38937;SDS011;24727;51.974;20.868;2023-05-19T02:46:54;1.70;;;1.20;;
38937;SDS011;24727;51.974;20.868;2023-05-19T02:49:20;1.60;;;0.98;;
38937;SDS011;24727;51.974;20.868;2023-05-19T02:51:46;2.63;;;0.93;;
38937;SDS011;24727;51.974;20.868;2023-05-19T02:54:12;3.28;;;1.33;;
38937;SDS011;24727;51.974;20.868;2023-05-19T02:56:38;2.90;;;2.20;;
38937;SDS011;24727;51.974;20.868;2023-05-19T02:59:05;2.08;;;1.55;;
38937;SDS011;24727;51.974;20.868;2023-05-19T03:01:31;2.00;;;0.90;;
38937;SDS011;24727;51.974;20.868;2023-05-19T03:03:59;4.10;;;1.30;;
38937;SDS011;24727;51.974;20.868;2023-05-19T03:06:25;1.35;;;0.90;;
38937;SDS011;24727;51.974;20.868;2023-05-19T03:08:53;0.77;;;0.73;;
38937;SDS011;24727;51.974;20.868;2023-05-19T03:11:19;1.27;;;0.90;;
38937;SDS011;24727;51.974;20.868;2023-05-19T03:13:48;1.75;;;0.90;;
38937;SDS011;24727;51.974;20.868;2023-05-19T03:16:14;1.48;;;0.98;;
38937;SDS011;24727;51.974;20.868;2023-05-19T03:18:40;2.40;;;1.15;;
38937;SDS011;24727;51.974;20.868;2023-05-19T03:21:07;2.30;;;1.05;;
38937;SDS011;24727;51.974;20.868;2023-05-19T03:23:34;1.42;;;0.90;;
38937;SDS011;24727;51.974;20.868;2023-05-19T03:26:00;2.78;;;1.45;;
38937;SDS011;24727;51.974;20.868;2023-05-19T03:28:27;2.90;;;1.08;;
38937;SDS011;24727;51.974;20.868;2023-05-19T03:30:55;1.38;;;0.95;;
38937;SDS011;24727;51.974;20.868;2023-05-19T03:33:21;2.30;;;1.23;;
38937;SDS011;24727;51.974;20.868;2023-05-19T03:35:48;1.65;;;1.27;;
38937;SDS011;24727;51.974;20.868;2023-05-19T03:38:14;1.98;;;0.95;;
38937;SDS011;24727;51.974;20.868;2023-05-19T03:40:41;2.50;;;1.17;;
38937;SDS011;24727;51.974;20.868;2023-05-19T03:43:08;2.35;;;1.20;;
38937;SDS011;24727;51.974;20.868;2023-05-19T03:45:34;1.75;;;0.95;;
38937;SDS011;24727;51.974;20.868;2023-05-19T03:48:01;6.00;;;1.48;;
38937;SDS011;24727;51.974;20.868;2023-05-19T03:50:27;3.33;;;1.25;;
38937;SDS011;24727;51.974;20.868;2023-05-19T03:52:55;1.95;;;1.13;;
38937;SDS011;24727;51.974;20.868;2023-05-19T03:55:22;1.80;;;1.17;;
38937;SDS011;24727;51.974;20.868;2023-05-19T03:57:49;2.25;;;1.33;;
38937;SDS011;24727;51.974;20.868;2023-05-19T04:00:16;1.83;;;1.00;;
38937;SDS011;24727;51.974;20.868;2023-05-19T04:02:43;2.83;;;1.30;;
38937;SDS011;24727;51.974;20.868;2023-05-19T04:05:09;2.28;;;1.45;;
38937;SDS011;24727;51.974;20.868;2023-05-19T04:07:35;2.60;;;1.25;;
38937;SDS011;24727;51.974;20.868;2023-05-19T04:10:03;3.15;;;1.42;;
38937;SDS011;24727;51.974;20.868;2023-05-19T04:12:30;3.35;;;1.80;;
38937;SDS011;24727;51.974;20.868;2023-05-19T04:14:56;2.50;;;1.48;;
38937;SDS011;24727;51.974;20.868;2023-05-19T04:17:21;5.45;;;1.73;;
38937;SDS011;24727;51.974;20.868;2023-05-19T04:19:53;3.95;;;1.40;;
38937;SDS011;24727;51.974;20.868;2023-05-19T04:22:19;1.90;;;1.30;;
38937;SDS011;24727;51.974;20.868;2023-05-19T04:24:45;1.77;;;1.30;;
38937;SDS011;24727;51.974;20.868;2023-05-19T04:27:13;1.98;;;1.52;;
38937;SDS011;24727;51.974;20.868;2023-05-19T04:29:41;2.47;;;1.65;;
38937;SDS011;24727;51.974;20.868;2023-05-19T04:32:07;2.67;;;1.38;;
38937;SDS011;24727;51.974;20.868;2023-05-19T04:34:33;3.15;;;1.48;;
38937;SDS011;24727;51.974;20.868;2023-05-19T04:37:00;1.98;;;1.60;;
38937;SDS011;24727;51.974;20.868;2023-05-19T04:39:28;5.97;;;1.98;;
38937;SDS011;24727;51.974;20.868;2023-05-19T04:41:55;2.63;;;1.80;;
38937;SDS011;24727;51.974;20.868;2023-05-19T04:44:21;3.35;;;1.80;;
38937;SDS011;24727;51.974;20.868;2023-05-19T04:46:49;5.15;;;2.13;;
38937;SDS011;24727;51.974;20.868;2023-05-19T04:49:18;3.70;;;2.30;;
38937;SDS011;24727;51.974;20.868;2023-05-19T04:51:45;3.80;;;1.90;;
38937;SDS011;24727;51.974;20.868;2023-05-19T04:54:14;3.30;;;2.20;;
38937;SDS011;24727;51.974;20.868;2023-05-19T04:56:40;5.03;;;2.63;;
38937;SDS011;24727;51.974;20.868;2023-05-19T04:59:08;2.80;;;2.15;;
38937;SDS011;24727;51.974;20.868;2023-05-19T05:01:34;5.10;;;2.08;;
38937;SDS011;24727;51.974;20.868;2023-05-19T05:04:05;3.42;;;2.30;;
38937;SDS011;24727;51.974;20.868;2023-05-19T05:06:32;3.05;;;1.70;;
38937;SDS011;24727;51.974;20.868;2023-05-19T05:08:58;4.38;;;2.28;;
38937;SDS011;24727;51.974;20.868;2023-05-19T05:11:25;4.20;;;2.70;;
38937;SDS011;24727;51.974;20.868;2023-05-19T05:13:51;3.28;;;2.45;;
38937;SDS011;24727;51.974;20.868;2023-05-19T05:16:17;5.55;;;2.70;;
38937;SDS011;24727;51.974;20.868;2023-05-19T05:18:44;3.53;;;2.70;;
38937;SDS011;24727;51.974;20.868;2023-05-19T05:21:11;4.18;;;2.65;;
38937;SDS011;24727;51.974;20.868;2023-05-19T05:23:37;4.80;;;2.30;;
38937;SDS011;24727;51.974;20.868;2023-05-19T05:26:05;3.67;;;2.97;;
38937;SDS011;24727;51.974;20.868;2023-05-19T05:28:36;4.57;;;2.83;;
38937;SDS011;24727;51.974;20.868;2023-05-19T05:31:02;4.93;;;2.95;;
38937;SDS011;24727;51.974;20.868;2023-05-19T05:33:30;7.03;;;3.17;;
38937;SDS011;24727;51.974;20.868;2023-05-19T05:35:57;3.47;;;2.67;;
38937;SDS011;24727;51.974;20.868;2023-05-19T05:38:23;4.88;;;3.17;;
38937;SDS011;24727;51.974;20.868;2023-05-19T05:40:49;3.55;;;2.60;;
38937;SDS011;24727;51.974;20.868;2023-05-19T05:43:15;7.22;;;3.35;;
38937;SDS011;24727;51.974;20.868;2023-05-19T05:45:42;3.55;;;2.35;;
38937;SDS011;24727;51.974;20.868;2023-05-19T05:48:10;3.17;;;2.75;;
38937;SDS011;24727;51.974;20.868;2023-05-19T05:50:39;7.00;;;3.67;;
38937;SDS011;24727;51.974;20.868;2023-05-19T05:53:09;3.83;;;2.90;;
38937;SDS011;24727;51.974;20.868;2023-05-19T05:55:42;5.30;;;2.92;;
38937;SDS011;24727;51.974;20.868;2023-05-19T05:58:08;3.90;;;3.17;;
38937;SDS011;24727;51.974;20.868;2023-05-19T06:00:37;5.05;;;2.92;;
38937;SDS011;24727;51.974;20.868;2023-05-19T06:03:02;7.28;;;3.15;;
38937;SDS011;24727;51.974;20.868;2023-05-19T06:05:30;11.20;;;2.88;;
38937;SDS011;24727;51.974;20.868;2023-05-19T06:07:56;3.53;;;2.80;;
38937;SDS011;24727;51.974;20.868;2023-05-19T06:10:22;2.60;;;2.17;;
38937;SDS011;24727;51.974;20.868;2023-05-19T06:12:48;4.55;;;2.25;;
38937;SDS011;24727;51.974;20.868;2023-05-19T06:15:15;2.25;;;2.03;;
38937;SDS011;24727;51.974;20.868;2023-05-19T06:17:41;7.53;;;2.47;;
38937;SDS011;24727;51.974;20.868;2023-05-19T06:20:07;4.75;;;1.90;;
38937;SDS011;24727;51.974;20.868;2023-05-19T06:22:34;4.30;;;2.85;;
38937;SDS011;24727;51.974;20.868;2023-05-19T06:25:00;4.18;;;2.78;;
38937;SDS011;24727;51.974;20.868;2023-05-19T06:27:26;3.10;;;2.30;;
38937;SDS011;24727;51.974;20.868;2023-05-19T06:29:52;2.95;;;2.33;;
38937;SDS011;24727;51.974;20.868;2023-05-19T06:32:19;5.13;;;2.33;;
38937;SDS011;24727;51.974;20.868;2023-05-19T06:34:45;3.40;;;2.47;;
38937;SDS011;24727;51.974;20.868;2023-05-19T06:37:19;6.00;;;2.30;;
38937;SDS011;24727;51.974;20.868;2023-05-19T06:39:56;4.20;;;2.72;;
38937;SDS011;24727;51.974;20.868;2023-05-19T06:42:22;7.65;;;2.90;;
38937;SDS011;24727;51.974;20.868;2023-05-19T06:44:49;3.63;;;2.25;;
38937;SDS011;24727;51.974;20.868;2023-05-19T06:47:18;3.78;;;2.30;;
38937;SDS011;24727;51.974;20.868;2023-05-19T06:49:44;2.50;;;2.30;;
38937;SDS011;24727;51.974;20.868;2023-05-19T06:52:10;2.42;;;2.22;;
38937;SDS011;24727;51.974;20.868;2023-05-19T06:54:36;7.10;;;2.70;;
38937;SDS011;24727;51.974;20.868;2023-05-19T06:57:03;3.35;;;2.30;;
38937;SDS011;24727;51.974;20.868;2023-05-19T06:59:29;3.25;;;2.17;;
38937;SDS011;24727;51.974;20.868;2023-05-19T07:01:56;6.90;;;2.58;;
38937;SDS011;24727;51.974;20.868;2023-05-19T07:04:22;2.60;;;2.10;;
38937;SDS011;24727;51.974;20.868;2023-05-19T07:06:48;4.63;;;2.92;;
38937;SDS011;24727;51.974;20.868;2023-05-19T07:09:14;6.00;;;2.75;;
38937;SDS011;24727;51.974;20.868;2023-05-19T07:11:41;3.63;;;2.60;;
38937;SDS011;24727;51.974;20.868;2023-05-19T07:14:08;2.80;;;2.08;;
38937;SDS011;24727;51.974;20.868;2023-05-19T07:16:35;2.65;;;2.13;;
38937;SDS011;24727;51.974;20.868;2023-05-19T07:19:01;2.95;;;2.00;;
38937;SDS011;24727;51.974;20.868;2023-05-19T07:21:28;5.10;;;2.70;;
38937;SDS011;24727;51.974;20.868;2023-05-19T07:23:54;3.80;;;2.22;;
38937;SDS011;24727;51.974;20.868;2023-05-19T07:26:20;8.43;;;1.90;;
38937;SDS011;24727;51.974;20.868;2023-05-19T07:28:46;3.67;;;2.35;;
38937;SDS011;24727;51.974;20.868;2023-05-19T07:31:14;5.00;;;2.95;;
38937;SDS011;24727;51.974;20.868;2023-05-19T07:33:41;4.05;;;2.53;;
38937;SDS011;24727;51.974;20.868;2023-05-19T07:36:07;6.45;;;3.25;;
38937;SDS011;24727;51.974;20.868;2023-05-19T07:38:33;4.05;;;2.03;;
38937;SDS011;24727;51.974;20.868;2023-05-19T07:41:03;5.72;;;3.08;;
38937;SDS011;24727;51.974;20.868;2023-05-19T07:43:29;4.72;;;2.40;;
38937;SDS011;24727;51.974;20.868;2023-05-19T07:45:55;4.47;;;2.50;;
38937;SDS011;24727;51.974;20.868;2023-05-19T07:50:52;9.75;;;4.30;;
38937;SDS011;24727;51.974;20.868;2023-05-19T07:53:18;7.55;;;3.90;;
38937;SDS011;24727;51.974;20.868;2023-05-19T07:55:46;6.53;;;2.90;;
38937;SDS011;24727;51.974;20.868;2023-05-19T07:58:14;5.72;;;3.20;;
38937;SDS011;24727;51.974;20.868;2023-05-19T08:00:41;7.30;;;3.55;;
38937;SDS011;24727;51.974;20.868;2023-05-19T08:03:08;7.40;;;3.30;;
38937;SDS011;24727;51.974;20.868;2023-05-19T08:05:34;6.28;;;3.05;;
38937;SDS011;24727;51.974;20.868;2023-05-19T08:08:02;5.82;;;2.95;;
38937;SDS011;24727;51.974;20.868;2023-05-19T08:10:29;6.40;;;2.90;;
38937;SDS011;24727;51.974;20.868;2023-05-19T08:12:55;7.32;;;4.18;;
38937;SDS011;24727;51.974;20.868;2023-05-19T08:15:22;6.05;;;3.10;;
38937;SDS011;24727;51.974;20.868;2023-05-19T08:17:49;7.68;;;3.85;;
38937;SDS011;24727;51.974;20.868;2023-05-19T08:20:16;8.27;;;3.47;;
38937;SDS011;24727;51.974;20.868;2023-05-19T08:22:43;9.35;;;3.47;;
38937;SDS011;24727;51.974;20.868;2023-05-19T08:25:11;9.02;;;3.88;;
38937;SDS011;24727;51.974;20.868;2023-05-19T08:27:41;6.22;;;3.75;;
38937;SDS011;24727;51.974;20.868;2023-05-19T08:30:08;9.45;;;3.55;;
38937;SDS011;24727;51.974;20.868;2023-05-19T08:32:35;11.02;;;3.58;;
38937;SDS011;24727;51.974;20.868;2023-05-19T08:35:02;7.55;;;3.28;;
38937;SDS011;24727;51.974;20.868;2023-05-19T08:37:28;5.45;;;2.83;;
38937;SDS011;24727;51.974;20.868;2023-05-19T08:39:54;8.50;;;3.33;;
38937;SDS011;24727;51.974;20.868;2023-05-19T08:42:21;6.20;;;3.33;;
38937;SDS011;24727;51.974;20.868;2023-05-19T08:44:48;8.10;;;3.42;;
38937;SDS011;24727;51.974;20.868;2023-05-19T08:47:14;6.65;;;3.45;;
38937;SDS011;24727;51.974;20.868;2023-05-19T08:49:45;5.72;;;3.70;;
38937;SDS011;24727;51.974;20.868;2023-05-19T08:52:21;5.82;;;3.47;;
38937;SDS011;24727;51.974;20.868;2023-05-19T08:54:57;7.90;;;3.47;;
38937;SDS011;24727;51.974;20.868;2023-05-19T08:57:29;5.30;;;3.40;;
38937;SDS011;24727;51.974;20.868;2023-05-19T08:59:59;6.72;;;2.40;;
38937;SDS011;24727;51.974;20.868;2023-05-19T09:02:27;7.32;;;3.28;;
38937;SDS011;24727;51.974;20.868;2023-05-19T09:04:54;7.15;;;3.40;;
38937;SDS011;24727;51.974;20.868;2023-05-19T09:07:21;8.75;;;3.67;;
38937;SDS011;24727;51.974;20.868;2023-05-19T09:09:50;6.68;;;3.55;;
38937;SDS011;24727;51.974;20.868;2023-05-19T09:12:17;8.95;;;3.72;;
38937;SDS011;24727;51.974;20.868;2023-05-19T09:14:43;11.35;;;3.42;;
38937;SDS011;24727;51.974;20.868;2023-05-19T09:17:10;6.88;;;3.25;;
38937;SDS011;24727;51.974;20.868;2023-05-19T09:19:41;6.13;;;3.45;;
38937;SDS011;24727;51.974;20.868;2023-05-19T09:22:08;6.45;;;3.72;;
38937;SDS011;24727;51.974;20.868;2023-05-19T09:24:34;7.00;;;3.35;;
38937;SDS011;24727;51.974;20.868;2023-05-19T09:27:00;8.88;;;3.75;;
38937;SDS011;24727;51.974;20.868;2023-05-19T09:29:26;6.82;;;3.70;;
38937;SDS011;24727;51.974;20.868;2023-05-19T09:31:54;7.75;;;3.80;;
38937;SDS011;24727;51.974;20.868;2023-05-19T09:34:25;7.88;;;4.30;;
38937;SDS011;24727;51.974;20.868;2023-05-19T09:36:52;6.80;;;3.78;;
38937;SDS011;24727;51.974;20.868;2023-05-19T09:39:18;14.90;;;3.97;;
38937;SDS011;24727;51.974;20.868;2023-05-19T09:41:45;8.02;;;3.88;;
38937;SDS011;24727;51.974;20.868;2023-05-19T09:44:25;8.90;;;5.07;;
38937;SDS011;24727;51.974;20.868;2023-05-19T09:46:56;9.85;;;4.45;;
38937;SDS011;24727;51.974;20.868;2023-05-19T09:49:23;7.00;;;3.47;;
38937;SDS011;24727;51.974;20.868;2023-05-19T09:51:57;7.90;;;4.40;;
38937;SDS011;24727;51.974;20.868;2023-05-19T09:54:26;7.15;;;4.47;;
38937;SDS011;24727;51.974;20.868;2023-05-19T09:56:57;7.90;;;4.82;;
38937;SDS011;24727;51.974;20.868;2023-05-19T09:59:24;7.53;;;4.00;;
38937;SDS011;24727;51.974;20.868;2023-05-19T10:01:55;9.90;;;3.80;;
38937;SDS011;24727;51.974;20.868;2023-05-19T10:04:25;13.10;;;5.07;;
38937;SDS011;24727;51.974;20.868;2023-05-19T10:06:53;10.75;;;4.85;;
38937;SDS011;24727;51.974;20.868;2023-05-19T10:09:23;7.30;;;4.03;;
38937;SDS011;24727;51.974;20.868;2023-05-19T10:11:51;11.75;;;4.75;;
38937;SDS011;24727;51.974;20.868;2023-05-19T10:14:22;10.25;;;4.97;;
38937;SDS011;24727;51.974;20.868;2023-05-19T10:16:50;9.85;;;3.45;;
38937;SDS011;24727;51.974;20.868;2023-05-19T10:19:20;6.65;;;3.53;;
38937;SDS011;24727;51.974;20.868;2023-05-19T10:21:53;7.63;;;4.25;;
38937;SDS011;24727;51.974;20.868;2023-05-19T10:24:20;8.85;;;4.68;;
38937;SDS011;24727;51.974;20.868;2023-05-19T10:26:50;6.65;;;3.72;;
38937;SDS011;24727;51.974;20.868;2023-05-19T10:29:27;5.75;;;3.42;;
38937;SDS011;24727;51.974;20.868;2023-05-19T10:31:59;8.65;;;4.93;;
38937;SDS011;24727;51.974;20.868;2023-05-19T10:41:15;8.20;;;4.03;;
38937;SDS011;24727;51.974;20.868;2023-05-19T10:46:09;9.80;;;4.43;;
38937;SDS011;24727;51.974;20.868;2023-05-19T10:48:35;7.75;;;3.30;;
38937;SDS011;24727;51.974;20.868;2023-05-19T10:51:02;11.27;;;5.97;;
38937;SDS011;24727;51.974;20.868;2023-05-19T10:53:32;12.10;;;5.30;;
38937;SDS011;24727;51.974;20.868;2023-05-19T10:56:03;8.32;;;5.03;;
38937;SDS011;24727;51.974;20.868;2023-05-19T10:58:38;12.40;;;4.82;;
38937;SDS011;24727;51.974;20.868;2023-05-19T11:01:14;8.35;;;5.07;;
38937;SDS011;24727;51.974;20.868;2023-05-19T11:03:48;8.23;;;4.00;;
38937;SDS011;24727;51.974;20.868;2023-05-19T11:06:32;6.80;;;3.78;;
38937;SDS011;24727;51.974;20.868;2023-05-19T11:11:52;8.10;;;4.88;;
38937;SDS011;24727;51.974;20.868;2023-05-19T11:14:22;7.35;;;4.57;;
38937;SDS011;24727;51.974;20.868;2023-05-19T11:19:18;6.03;;;4.28;;
38937;SDS011;24727;51.974;20.868;2023-05-19T11:21:51;6.90;;;4.57;;
38937;SDS011;24727;51.974;20.868;2023-05-19T11:24:32;11.00;;;5.10;;
38937;SDS011;24727;51.974;20.868;2023-05-19T11:27:27;11.77;;;5.10;;
38937;SDS011;24727;51.974;20.868;2023-05-19T11:29:58;10.95;;;4.93;;
38937;SDS011;24727;51.974;20.868;2023-05-19T11:32:36;7.40;;;4.70;;
38937;SDS011;24727;51.974;20.868;2023-05-19T11:35:07;10.52;;;4.25;;
38937;SDS011;24727;51.974;20.868;2023-05-19T11:37:34;10.18;;;3.97;;
38937;SDS011;24727;51.974;20.868;2023-05-19T11:40:01;8.90;;;3.67;;
38937;SDS011;24727;51.974;20.868;2023-05-19T11:42:31;8.98;;;4.20;;
38937;SDS011;24727;51.974;20.868;2023-05-19T11:44:58;8.23;;;4.28;;
38937;SDS011;24727;51.974;20.868;2023-05-19T11:47:25;11.38;;;5.35;;
38937;SDS011;24727;51.974;20.868;2023-05-19T11:49:53;11.00;;;4.90;;
38937;SDS011;24727;51.974;20.868;2023-05-19T11:52:23;9.65;;;5.03;;
38937;SDS011;24727;51.974;20.868;2023-05-19T11:54:52;11.00;;;4.68;;
38937;SDS011;24727;51.974;20.868;2023-05-19T11:57:18;10.63;;;4.68;;
38937;SDS011;24727;51.974;20.868;2023-05-19T11:59:45;11.48;;;4.97;;
38937;SDS011;24727;51.974;20.868;2023-05-19T12:04:49;12.20;;;5.03;;
38937;SDS011;24727;51.974;20.868;2023-05-19T12:07:17;13.52;;;4.88;;
38937;SDS011;24727;51.974;20.868;2023-05-19T12:09:45;9.85;;;4.47;;
38937;SDS011;24727;51.974;20.868;2023-05-19T12:12:15;9.68;;;4.15;;
38937;SDS011;24727;51.974;20.868;2023-05-19T12:14:43;11.13;;;4.50;;
38937;SDS011;24727;51.974;20.868;2023-05-19T12:17:12;13.90;;;5.47;;
38937;SDS011;24727;51.974;20.868;2023-05-19T12:19:39;7.55;;;4.68;;
38937;SDS011;24727;51.974;20.868;2023-05-19T12:22:08;9.65;;;3.70;;
38937;SDS011;24727;51.974;20.868;2023-05-19T12:24:34;10.55;;;4.22;;
38937;SDS011;24727;51.974;20.868;2023-05-19T12:27:22;8.40;;;3.97;;
38937;SDS011;24727;51.974;20.868;2023-05-19T12:29:52;8.68;;;4.18;;
38937;SDS011;24727;51.974;20.868;2023-05-19T12:32:27;5.95;;;3.60;;
38937;SDS011;24727;51.974;20.868;2023-05-19T12:34:57;9.15;;;4.30;;
38937;SDS011;24727;51.974;20.868;2023-05-19T12:37:26;7.60;;;4.53;;
38937;SDS011;24727;51.974;20.868;2023-05-19T12:39:54;12.00;;;4.85;;
38937;SDS011;24727;51.974;20.868;2023-05-19T12:42:21;11.88;;;4.60;;
38937;SDS011;24727;51.974;20.868;2023-05-19T12:44:49;9.95;;;4.63;;
38937;SDS011;24727;51.974;20.868;2023-05-19T12:47:17;14.48;;;4.35;;
38937;SDS011;24727;51.974;20.868;2023-05-19T12:50:02;10.18;;;4.85;;
38937;SDS011;24727;51.974;20.868;2023-05-19T12:52:33;6.93;;;4.00;;
38937;SDS011;24727;51.974;20.868;2023-05-19T12:55:08;8.02;;;3.70;;
38937;SDS011;24727;51.974;20.868;2023-05-19T12:57:36;9.18;;;3.67;;
38937;SDS011;24727;51.974;20.868;2023-05-19T13:00:06;6.47;;;4.28;;
38937;SDS011;24727;51.974;20.868;2023-05-19T13:02:57;13.07;;;5.45;;
38937;SDS011;24727;51.974;20.868;2023-05-19T13:05:29;10.43;;;5.00;;
38937;SDS011;24727;51.974;20.868;2023-05-19T13:07:59;7.43;;;4.20;;
38937;SDS011;24727;51.974;20.868;2023-05-19T13:10:27;6.65;;;3.65;;
38937;SDS011;24727;51.974;20.868;2023-05-19T13:12:54;14.82;;;5.10;;
38937;SDS011;24727;51.974;20.868;2023-05-19T13:15:21;9.10;;;4.72;;
38937;SDS011;24727;51.974;20.868;2023-05-19T13:17:51;9.10;;;4.97;;
38937;SDS011;24727;51.974;20.868;2023-05-19T13:20:18;11.70;;;5.20;;
38937;SDS011;24727;51.974;20.868;2023-05-19T13:22:46;11.68;;;5.57;;
38937;SDS011;24727;51.974;20.868;2023-05-19T13:25:12;12.90;;;5.00;;
38937;SDS011;24727;51.974;20.868;2023-05-19T13:27:40;9.38;;;4.50;;
38937;SDS011;24727;51.974;20.868;2023-05-19T13:30:08;8.63;;;4.82;;
38937;SDS011;24727;51.974;20.868;2023-05-19T13:32:35;13.60;;;5.30;;
38937;SDS011;24727;51.974;20.868;2023-05-19T13:35:01;13.13;;;5.18;;
38937;SDS011;24727;51.974;20.868;2023-05-19T13:37:27;12.30;;;5.38;;
38937;SDS011;24727;51.974;20.868;2023-05-19T13:39:53;12.48;;;5.25;;
38937;SDS011;24727;51.974;20.868;2023-05-19T13:42:23;9.20;;;4.60;;
38937;SDS011;24727;51.974;20.868;2023-05-19T13:44:55;11.55;;;5.20;;
38937;SDS011;24727;51.974;20.868;2023-05-19T13:47:23;9.98;;;4.10;;
38937;SDS011;24727;51.974;20.868;2023-05-19T13:49:51;11.23;;;5.35;;
38937;SDS011;24727;51.974;20.868;2023-05-19T13:52:20;9.60;;;4.90;;
38937;SDS011;24727;51.974;20.868;2023-05-19T13:54:47;10.32;;;4.28;;
38937;SDS011;24727;51.974;20.868;2023-05-19T13:57:16;8.25;;;4.10;;
38937;SDS011;24727;51.974;20.868;2023-05-19T13:59:43;11.43;;;4.93;;
38937;SDS011;24727;51.974;20.868;2023-05-19T14:02:11;9.15;;;4.45;;
38937;SDS011;24727;51.974;20.868;2023-05-19T14:04:37;18.48;;;4.82;;
38937;SDS011;24727;51.974;20.868;2023-05-19T14:07:05;8.00;;;4.45;;
38937;SDS011;24727;51.974;20.868;2023-05-19T14:09:32;8.43;;;4.55;;
38937;SDS011;24727;51.974;20.868;2023-05-19T14:12:01;7.72;;;4.25;;
38937;SDS011;24727;51.974;20.868;2023-05-19T14:14:28;7.32;;;4.32;;
38937;SDS011;24727;51.974;20.868;2023-05-19T14:16:54;11.95;;;4.90;;
38937;SDS011;24727;51.974;20.868;2023-05-19T14:19:21;11.05;;;5.15;;
38937;SDS011;24727;51.974;20.868;2023-05-19T14:21:48;8.73;;;4.80;;
38937;SDS011;24727;51.974;20.868;2023-05-19T14:24:16;8.75;;;5.00;;
38937;SDS011;24727;51.974;20.868;2023-05-19T14:26:42;11.32;;;5.25;;
38937;SDS011;24727;51.974;20.868;2023-05-19T14:29:08;8.23;;;4.18;;
38937;SDS011;24727;51.974;20.868;2023-05-19T14:31:34;15.82;;;5.90;;
38937;SDS011;24727;51.974;20.868;2023-05-19T14:34:00;11.05;;;5.28;;
38937;SDS011;24727;51.974;20.868;2023-05-19T14:36:26;8.77;;;4.72;;
38937;SDS011;24727;51.974;20.868;2023-05-19T14:38:52;12.63;;;5.40;;
38937;SDS011;24727;51.974;20.868;2023-05-19T14:41:19;6.90;;;3.97;;
38937;SDS011;24727;51.974;20.868;2023-05-19T14:43:46;12.23;;;5.60;;
38937;SDS011;24727;51.974;20.868;2023-05-19T14:46:12;7.13;;;4.78;;
38937;SDS011;24727;51.974;20.868;2023-05-19T14:48:38;6.05;;;3.92;;
38937;SDS011;24727;51.974;20.868;2023-05-19T14:51:04;15.60;;;5.30;;
38937;SDS011;24727;51.974;20.868;2023-05-19T14:53:31;11.10;;;4.40;;
38937;SDS011;24727;51.974;20.868;2023-05-19T14:55:57;9.63;;;5.75;;
38937;SDS011;24727;51.974;20.868;2023-05-19T14:58:23;6.18;;;4.80;;
38937;SDS011;24727;51.974;20.868;2023-05-19T15:00:51;6.55;;;4.43;;
38937;SDS011;24727;51.974;20.868;2023-05-19T15:03:17;11.00;;;4.95;;
38937;SDS011;24727;51.974;20.868;2023-05-19T15:05:44;7.65;;;4.28;;
38937;SDS011;24727;51.974;20.868;2023-05-19T15:08:10;6.53;;;3.70;;
38937;SDS011;24727;51.974;20.868;2023-05-19T15:10:36;12.35;;;4.95;;
38937;SDS011;24727;51.974;20.868;2023-05-19T15:13:03;6.45;;;4.30;;